Time;durP1;ratioP1;P1;durP2;ratioP2;P2;SDS_P1;SDS_P2;PMS_P1;PMS_P2;Temp;Humidity;BMP_temperature;BMP_pressure;BME280_temperature;BME280_humidity;BME280_pressure;Samples;Min_cycle;Max_cycle;Signal;HPM_P1;HPM_P2
2022/07/24 00:01:23;;;;;;;5.35;4.88;;;;;;;19.81;65.49;98479.78;5031352;28;20046;-89
2022/07/24 00:03:50;;;;;;;5.45;4.95;;;;;;;19.97;65.58;98489.56;4999479;28;20050;-88
2022/07/24 00:06:16;;;;;;;4.75;4.32;;;;;;;19.98;64.80;98480.50;5019401;28;20068;-88
2022/07/24 00:08:43;;;;;;;5.15;4.65;;;;;;;19.93;63.82;98485.78;5034455;28;20049;-89
2022/07/24 00:11:11;;;;;;;5.28;4.45;;;;;;;19.74;64.54;98489.81;5015235;28;20038;-89
2022/07/24 00:13:38;;;;;;;5.40;4.28;;;;;;;19.78;64.41;98475.75;5028631;28;20169;-89
2022/07/24 00:16:05;;;;;;;4.53;4.03;;;;;;;19.89;64.73;98492.63;5019094;28;20134;-89
2022/07/24 00:18:32;;;;;;;4.88;3.80;;;;;;;19.89;64.67;98491.84;5019967;28;20050;-89
2022/07/24 00:20:59;;;;;;;5.30;4.82;;;;;;;19.84;65.37;98479.28;5031974;28;20533;-90
2022/07/24 00:23:26;;;;;;;5.53;5.03;;;;;;;19.97;65.96;98489.56;5002130;28;20049;-89
2022/07/24 00:25:54;;;;;;;4.68;4.25;;;;;;;19.83;65.48;98490.97;5031081;28;20041;-90
2022/07/24 00:28:21;;;;;;;6.45;5.10;;;;;;;19.64;65.96;98489.69;5026697;28;20042;-89
2022/07/24 00:30:47;;;;;;;4.28;3.88;;;;;;;19.69;66.20;98487.09;5033932;28;20111;-89
2022/07/24 00:33:14;;;;;;;4.95;4.55;;;;;;;19.71;66.79;98480.47;5016881;28;20051;-89
2022/07/24 00:35:41;;;;;;;5.30;4.82;;;;;;;19.85;67.42;98472.91;5033742;28;20041;-90
2022/07/24 00:38:08;;;;;;;5.80;5.00;;;;;;;19.92;67.15;98486.84;5034765;28;20049;-90
2022/07/24 00:40:35;;;;;;;5.70;5.20;;;;;;;19.92;66.87;98476.19;5033243;28;20055;-90
2022/07/24 00:43:03;;;;;;;6.05;5.47;;;;;;;20.07;65.94;98482.69;5029656;28;20535;-88
2022/07/24 00:45:30;;;;;;;5.07;4.68;;;;;;;20.01;66.53;98473.88;5029010;28;20061;-89
2022/07/24 00:47:57;;;;;;;5.30;4.80;;;;;;;20.08;66.46;98484.31;5007899;28;20084;-89
2022/07/24 00:50:25;;;;;;;5.65;5.15;;;;;;;20.05;66.49;98481.09;5030130;28;20041;-85
2022/07/24 00:52:53;;;;;;;6.40;5.80;;;;;;;20.07;67.05;98488.84;5019828;28;20057;-85
2022/07/24 00:55:21;;;;;;;6.18;5.68;;;;;;;20.01;66.58;98495.97;5025831;28;20437;-85
2022/07/24 00:57:49;;;;;;;5.55;5.15;;;;;;;19.75;66.43;98494.91;5023104;28;20042;-85
2022/07/24 01:00:19;;;;;;;6.40;5.80;;;;;;;19.41;68.07;98501.34;5025453;28;20068;-85
2022/07/24 01:02:46;;;;;;;7.05;6.45;;;;;;;19.15;69.45;98498.38;5029009;28;20049;-84
2022/07/24 01:05:13;;;;;;;4.82;4.43;;;;;;;19.24;68.97;98496.06;5025565;28;20389;-85
2022/07/24 01:07:40;;;;;;;4.93;4.53;;;;;;;19.20;69.28;98484.34;5028916;28;20160;-85
2022/07/24 01:10:08;;;;;;;5.10;4.70;;;;;;;19.30;69.48;98473.81;5019177;28;20049;-84
2022/07/24 01:12:39;;;;;;;4.90;4.50;;;;;;;19.43;68.12;98493.91;5028571;28;20544;-84
2022/07/24 01:15:09;;;;;;;5.97;5.40;;;;;;;19.26;67.74;98504.63;5022589;28;20116;-85
2022/07/24 01:17:41;;;;;;;4.80;4.40;;;;;;;19.23;66.74;98499.78;5021282;28;20036;-85
2022/07/24 01:20:09;;;;;;;6.13;5.53;;;;;;;19.12;66.74;98504.16;5018435;28;20042;-84
2022/07/24 01:22:36;;;;;;;6.85;6.15;;;;;;;18.88;67.52;98502.75;5021362;28;20099;-85
2022/07/24 01:25:04;;;;;;;6.65;6.05;;;;;;;18.74;67.95;98499.63;5026085;28;20049;-85
2022/07/24 01:27:30;;;;;;;7.60;6.90;;;;;;;18.53;68.79;98485.19;5028991;28;20116;-85
2022/07/24 01:29:57;;;;;;;6.20;5.70;;;;;;;18.62;70.08;98504.19;5021803;28;20041;-84
2022/07/24 01:32:24;;;;;;;6.03;5.53;;;;;;;18.57;70.56;98485.50;5028472;28;20073;-85
2022/07/24 01:34:50;;;;;;;5.30;4.90;;;;;;;18.71;70.42;98492.13;5032549;28;20073;-85
2022/07/24 01:37:17;;;;;;;6.72;6.13;;;;;;;18.62;69.53;98493.56;5028139;28;20054;-84
2022/07/24 01:39:44;;;;;;;6.80;6.20;;;;;;;18.54;69.69;98481.50;5029301;28;20501;-84
2022/07/24 01:42:10;;;;;;;5.40;4.88;;;;;;;18.59;69.35;98483.41;5031411;28;20544;-85
2022/07/24 01:44:37;;;;;;;5.32;4.82;;;;;;;18.76;69.25;98478.91;5012001;28;20042;-85
2022/07/24 01:47:04;;;;;;;5.30;4.85;;;;;;;18.84;69.75;98481.19;5015976;28;20048;-85
2022/07/24 01:49:30;;;;;;;5.55;5.13;;;;;;;18.96;70.23;98481.91;5012075;28;20054;-85
2022/07/24 01:51:57;;;;;;;5.07;4.60;;;;;;;19.03;69.93;98487.03;5015906;28;20080;-84
2022/07/24 01:54:24;;;;;;;5.00;4.45;;;;;;;19.14;69.09;98475.50;5021913;28;20068;-84
2022/07/24 01:56:50;;;;;;;5.30;4.85;;;;;;;19.18;68.23;98475.78;5024417;28;20049;-84
2022/07/24 01:59:17;;;;;;;5.20;4.53;;;;;;;19.09;67.78;98478.06;5019394;28;20409;-85
2022/07/24 02:01:44;;;;;;;5.57;5.07;;;;;;;19.01;68.72;98485.66;5030673;28;20148;-84
2022/07/24 02:04:11;;;;;;;8.18;7.38;;;;;;;18.63;70.12;98485.34;5026244;28;20099;-85
2022/07/24 02:06:38;;;;;;;6.07;5.57;;;;;;;18.65;69.69;98487.75;5022903;28;20068;-85
2022/07/24 02:09:05;;;;;;;6.68;6.07;;;;;;;18.58;70.02;98492.41;5022641;28;20383;-84
2022/07/24 02:11:32;;;;;;;5.70;5.15;;;;;;;18.41;70.00;98469.34;5026327;28;20053;-85
2022/07/24 02:14:00;;;;;;;5.97;5.47;;;;;;;18.50;69.76;98490.97;5023141;28;20069;-84
2022/07/24 02:16:27;;;;;;;6.70;6.10;;;;;;;18.46;70.01;98485.34;5011674;28;20046;-85
2022/07/24 02:18:54;;;;;;;5.70;5.18;;;;;;;18.35;70.04;98486.22;5020411;28;20088;-85
2022/07/24 02:21:21;;;;;;;5.63;5.13;;;;;;;18.34;69.75;98489.91;5031888;28;20119;-88
2022/07/24 02:23:48;;;;;;;6.03;5.53;;;;;;;18.24;69.98;98470.38;5027087;28;20045;-86
2022/07/24 02:26:14;;;;;;;7.03;5.97;;;;;;;18.28;70.16;98487.41;5024572;28;20065;-85
2022/07/24 02:28:41;;;;;;;5.03;4.63;;;;;;;18.34;70.56;98481.94;5020395;28;20453;-85
2022/07/24 02:31:08;;;;;;;5.95;5.28;;;;;;;18.40;71.26;98480.19;5027092;28;20046;-85
2022/07/24 02:33:34;;;;;;;5.47;4.97;;;;;;;18.38;70.15;98485.75;5014147;28;20130;-85
2022/07/24 02:36:01;;;;;;;5.65;5.15;;;;;;;18.35;70.94;98483.56;5024087;28;20429;-85
2022/07/24 02:38:28;;;;;;;6.90;6.20;;;;;;;18.36;71.09;98479.88;5029144;28;20154;-86
2022/07/24 02:40:55;;;;;;;6.00;5.50;;;;;;;18.46;71.40;98500.47;5021921;28;20042;-85
2022/07/24 02:43:21;;;;;;;5.60;5.00;;;;;;;18.44;70.96;98478.66;5010985;28;20065;-86
2022/07/24 02:45:48;;;;;;;5.70;5.20;;;;;;;18.51;69.94;98499.75;5006802;28;20069;-86
2022/07/24 02:48:18;;;;;;;6.15;5.65;;;;;;;18.26;70.16;98486.84;5014557;28;20065;-86
2022/07/24 02:50:45;;;;;;;5.18;4.70;;;;;;;18.19;70.79;98489.66;5008504;28;20073;-86
2022/07/24 02:53:13;;;;;;;6.00;5.07;;;;;;;18.11;71.28;98479.41;5020901;28;20117;-85
2022/07/24 02:55:40;;;;;;;5.53;5.03;;;;;;;18.06;71.65;98489.97;5022498;28;20049;-85
2022/07/24 02:58:07;;;;;;;5.72;5.22;;;;;;;18.07;72.26;98486.25;5022038;28;20042;-85
2022/07/24 03:00:34;;;;;;;5.28;4.78;;;;;;;18.12;72.61;98489.81;4999229;28;20049;-86
2022/07/24 03:03:02;;;;;;;5.80;5.30;;;;;;;18.27;71.69;98499.88;5031122;28;20042;-86
2022/07/24 03:05:29;;;;;;;6.40;5.50;;;;;;;18.35;71.27;98499.50;5011619;28;20046;-85
2022/07/24 03:07:56;;;;;;;5.93;5.18;;;;;;;18.19;71.13;98492.31;5019727;28;20033;-85
2022/07/24 03:10:23;;;;;;;5.13;4.63;;;;;;;18.07;71.22;98481.75;5021320;28;20064;-85
2022/07/24 03:12:50;;;;;;;6.43;5.82;;;;;;;18.06;71.06;98496.06;5021742;28;20541;-85
2022/07/24 03:15:17;;;;;;;5.35;4.85;;;;;;;18.26;71.79;98506.25;5011062;28;20073;-85
2022/07/24 03:17:53;;;;;;;5.80;5.25;;;;;;;18.32;72.10;98499.97;5010770;28;20046;-86
2022/07/24 03:20:26;;;;;;;6.00;5.40;;;;;;;18.39;72.43;98503.28;5021819;28;20125;-85
2022/07/24 03:22:53;;;;;;;5.97;5.37;;;;;;;18.31;70.93;98497.56;5018008;28;20046;-85
2022/07/24 03:25:20;;;;;;;5.35;4.90;;;;;;;18.06;71.42;98482.81;5015469;28;20464;-85
2022/07/24 03:27:47;;;;;;;5.07;4.68;;;;;;;18.21;71.73;98497.38;5029617;28;20041;-85
2022/07/24 03:30:16;;;;;;;4.78;4.38;;;;;;;18.32;71.38;98493.88;5017544;28;20575;-86
2022/07/24 03:32:44;;;;;;;5.65;5.15;;;;;;;18.41;71.81;98503.03;5020584;28;20046;-85
2022/07/24 03:35:11;;;;;;;6.15;5.60;;;;;;;18.39;71.86;98475.91;5029297;28;20045;-86
2022/07/24 03:37:38;;;;;;;5.97;5.43;;;;;;;18.49;71.11;98500.00;5020691;28;20033;-86
2022/07/24 03:40:06;;;;;;;7.00;6.30;;;;;;;18.48;71.81;98508.22;5019912;28;20100;-86
2022/07/24 03:42:33;;;;;;;5.82;5.32;;;;;;;18.57;71.75;98512.06;5009834;28;20473;-86
2022/07/24 03:45:00;;;;;;;5.93;5.43;;;;;;;18.53;71.43;98495.00;5030377;28;20076;-86
2022/07/24 03:47:27;;;;;;;6.22;5.70;;;;;;;18.54;71.96;98492.13;5026262;28;20072;-86
2022/07/24 03:49:54;;;;;;;5.97;5.47;;;;;;;18.42;71.89;98507.31;5016844;28;20052;-86
2022/07/24 03:52:21;;;;;;;5.80;5.30;;;;;;;18.38;72.45;98499.00;5011802;28;20049;-85
2022/07/24 03:54:50;;;;;;;5.10;4.60;;;;;;;18.45;72.54;98504.97;5023409;28;20055;-85
2022/07/24 03:57:17;;;;;;;6.32;5.72;;;;;;;18.52;72.46;98501.34;5029119;28;20037;-85
2022/07/24 03:59:44;;;;;;;6.53;6.03;;;;;;;18.51;72.23;98494.44;5030127;28;20072;-86
2022/07/24 04:02:10;;;;;;;5.70;5.20;;;;;;;18.43;72.43;98512.38;5025015;28;20041;-86
2022/07/24 04:04:37;;;;;;;5.50;5.00;;;;;;;18.34;72.62;98508.50;5021497;28;20072;-86
2022/07/24 04:07:04;;;;;;;6.05;5.50;;;;;;;18.16;72.97;98508.72;5023440;28;20452;-86
2022/07/24 04:09:31;;;;;;;6.47;5.78;;;;;;;18.01;73.51;98503.13;5022832;28;20038;-85
2022/07/24 04:11:59;;;;;;;6.05;5.40;;;;;;;17.86;74.13;98509.75;5029951;28;20774;-86
2022/07/24 04:14:26;;;;;;;6.88;6.18;;;;;;;17.72;74.11;98505.78;5022166;28;20498;-86
2022/07/24 04:16:53;;;;;;;5.90;5.30;;;;;;;17.84;74.22;98511.03;5024410;28;20066;-85
2022/07/24 04:19:20;;;;;;;5.55;5.05;;;;;;;17.85;73.33;98515.31;5030002;28;20041;-86
2022/07/24 04:21:46;;;;;;;6.03;5.38;;;;;;;17.86;73.72;98508.94;5024970;28;20108;-86
2022/07/24 04:24:13;;;;;;;6.07;5.57;;;;;;;18.04;74.67;98513.25;5016345;28;20076;-86
2022/07/24 04:26:40;;;;;;;5.47;4.97;;;;;;;17.91;72.97;98503.75;5018776;28;20038;-86
2022/07/24 04:29:07;;;;;;;6.80;6.20;;;;;;;17.73;73.46;98518.00;5023735;28;20582;-86
2022/07/24 04:31:34;;;;;;;6.45;5.85;;;;;;;17.77;75.02;98511.19;5017646;28;20482;-86
2022/07/24 04:34:01;;;;;;;6.15;5.55;;;;;;;17.97;74.44;98528.53;5013931;28;20042;-86
2022/07/24 04:36:28;;;;;;;7.95;7.15;;;;;;;18.04;74.92;98515.91;5023250;28;20046;-86
2022/07/24 04:38:55;;;;;;;6.63;5.18;;;;;;;18.15;73.39;98513.22;5013410;28;20501;-86
2022/07/24 04:41:22;;;;;;;6.32;5.70;;;;;;;18.22;74.35;98521.03;5018337;28;20052;-86
2022/07/24 04:43:49;;;;;;;6.72;6.13;;;;;;;18.30;74.32;98528.63;5027255;28;20073;-86
2022/07/24 04:46:17;;;;;;;6.50;5.90;;;;;;;18.36;73.18;98532.19;5018043;28;20049;-86
2022/07/24 04:48:44;;;;;;;6.10;5.60;;;;;;;18.30;72.64;98520.66;5021210;28;20125;-86
2022/07/24 04:51:11;;;;;;;6.18;5.57;;;;;;;18.19;72.64;98535.59;4994483;28;20501;-86
2022/07/24 04:53:44;;;;;;;6.50;5.90;;;;;;;17.90;73.28;98510.91;5012147;28;20058;-86
2022/07/24 04:56:11;;;;;;;6.38;5.78;;;;;;;17.77;73.66;98516.50;5040100;28;20509;-85
2022/07/24 04:58:37;;;;;;;6.20;5.43;;;;;;;17.80;74.38;98523.16;5028045;28;20046;-85
2022/07/24 05:01:04;;;;;;;6.25;5.68;;;;;;;17.82;74.50;98532.50;5023169;28;20046;-85
2022/07/24 05:03:31;;;;;;;5.20;4.75;;;;;;;17.91;75.65;98527.63;5032099;28;20045;-86
2022/07/24 05:05:58;;;;;;;5.80;5.28;;;;;;;17.98;74.94;98508.91;5023201;28;20507;-86
2022/07/24 05:08:25;;;;;;;5.78;5.28;;;;;;;18.20;74.91;98539.06;5020687;28;20042;-86
2022/07/24 05:10:52;;;;;;;5.50;5.00;;;;;;;18.29;75.42;98524.38;5020782;28;20049;-86
2022/07/24 05:13:19;;;;;;;5.45;4.95;;;;;;;18.48;73.90;98540.88;5014957;28;20049;-86
2022/07/24 05:15:45;;;;;;;7.45;6.82;;;;;;;18.42;72.40;98532.03;5023628;28;20041;-86
2022/07/24 05:18:12;;;;;;;6.15;5.65;;;;;;;18.51;72.35;98540.38;5026784;28;20048;-86
2022/07/24 05:20:39;;;;;;;6.13;5.53;;;;;;;18.63;72.10;98537.66;5026843;28;20045;-86
2022/07/24 05:23:06;;;;;;;5.93;5.32;;;;;;;18.65;72.05;98530.25;5031825;28;20041;-85
2022/07/24 05:25:33;;;;;;;7.03;6.32;;;;;;;18.65;72.18;98523.13;5026995;28;20073;-85
2022/07/24 05:28:00;;;;;;;8.88;8.07;;;;;;;18.72;71.78;98525.63;5019829;28;20508;-87
2022/07/24 05:30:26;;;;;;;6.13;5.53;;;;;;;18.86;73.26;98528.78;5040272;28;20042;-85
2022/07/24 05:32:53;;;;;;;7.75;7.05;;;;;;;18.96;73.24;98521.75;5026516;28;20041;-86
2022/07/24 05:35:20;;;;;;;6.72;6.13;;;;;;;19.12;73.92;98520.13;5026433;28;20038;-86
2022/07/24 05:37:55;;;;;;;6.13;5.53;;;;;;;19.36;73.20;98526.03;5021285;28;20038;-86
2022/07/24 05:40:22;;;;;;;6.63;6.03;;;;;;;19.38;72.26;98518.63;5024236;28;20037;-86
2022/07/24 05:42:49;;;;;;;6.53;5.90;;;;;;;19.39;71.83;98520.22;5020082;28;20046;-86
2022/07/24 05:45:16;;;;;;;6.55;5.95;;;;;;;19.39;70.04;98525.53;5020690;28;20046;-86
2022/07/24 05:47:43;;;;;;;6.70;6.10;;;;;;;19.34;70.01;98528.13;5019582;28;20042;-86
2022/07/24 05:50:13;;;;;;;7.07;6.47;;;;;;;19.26;70.41;98525.91;5024709;28;20052;-86
2022/07/24 05:52:41;;;;;;;7.00;6.32;;;;;;;19.09;70.62;98525.13;5019857;28;20061;-85
2022/07/24 05:55:10;;;;;;;7.93;7.22;;;;;;;19.11;70.70;98525.69;5031429;28;20109;-86
2022/07/24 05:57:44;;;;;;;8.45;7.65;;;;;;;19.06;70.78;98520.28;5015611;28;20042;-84
2022/07/24 06:00:14;;;;;;;9.15;7.88;;;;;;;19.19;70.80;98527.91;5026341;28;20041;-83
2022/07/24 06:02:46;;;;;;;10.02;9.02;;;;;;;19.23;70.06;98531.69;5015511;28;20128;-84
2022/07/24 06:05:17;;;;;;;7.55;6.88;;;;;;;19.45;70.58;98523.75;5020465;28;20042;-83
2022/07/24 06:07:44;;;;;;;5.97;5.47;;;;;;;19.66;70.71;98516.84;5021121;28;20041;-83
2022/07/24 06:10:11;;;;;;;7.70;6.95;;;;;;;19.86;68.30;98524.28;5016838;28;20075;-84
2022/07/24 06:12:42;;;;;;;6.95;6.25;;;;;;;19.92;69.43;98510.78;5027127;28;20067;-84
2022/07/24 06:15:10;;;;;;;6.90;6.30;;;;;;;20.11;68.55;98526.41;5021222;28;20055;-84
2022/07/24 06:17:37;;;;;;;9.50;8.60;;;;;;;20.25;67.71;98530.28;5041946;28;20042;-84
2022/07/24 06:20:06;;;;;;;7.38;6.68;;;;;;;20.46;68.15;98526.78;5020516;28;20492;-84
2022/07/24 06:22:33;;;;;;;6.40;5.82;;;;;;;20.71;68.61;98530.72;5024209;28;20042;-85
2022/07/24 06:24:59;;;;;;;6.72;6.13;;;;;;;20.78;67.53;98525.97;5023202;28;20053;-85
2022/07/24 06:27:26;;;;;;;6.80;6.20;;;;;;;20.94;67.09;98533.03;5027884;28;20076;-84
2022/07/24 06:29:53;;;;;;;6.82;6.22;;;;;;;21.17;67.04;98523.88;5031412;28;20041;-84
2022/07/24 06:32:22;;;;;;;6.60;6.00;;;;;;;21.28;66.20;98520.16;5021114;28;20042;-85
2022/07/24 06:34:49;;;;;;;6.82;6.13;;;;;;;21.38;67.46;98511.47;5026974;28;20053;-85
2022/07/24 06:37:16;;;;;;;7.13;6.53;;;;;;;21.48;64.66;98514.19;5019313;28;20104;-87
2022/07/24 06:39:46;;;;;;;7.75;6.82;;;;;;;21.48;65.28;98530.19;5017914;28;20045;-85
2022/07/24 06:42:12;;;;;;;6.72;6.22;;;;;;;21.67;66.01;98529.75;5011521;28;20046;-84
2022/07/24 06:44:39;;;;;;;6.15;5.65;;;;;;;21.88;66.35;98518.84;5026787;28;20052;-84
2022/07/24 06:47:06;;;;;;;7.07;6.38;;;;;;;22.16;65.82;98520.28;5027334;28;20551;-84
2022/07/24 06:49:33;;;;;;;6.78;6.10;;;;;;;22.24;62.78;98520.84;5026033;28;20386;-86
2022/07/24 06:52:00;;;;;;;6.78;6.18;;;;;;;22.40;61.70;98523.28;5007829;28;20498;-86
2022/07/24 06:54:27;;;;;;;7.78;7.13;;;;;;;22.47;62.81;98531.03;5015051;28;20391;-92
2022/07/24 06:56:53;;;;;;;7.22;6.63;;;;;;;22.56;62.48;98521.44;4997498;28;20054;-92
2022/07/24 06:59:20;;;;;;;6.95;6.35;;;;;;;22.73;61.46;98520.34;5014663;28;20411;-93
2022/07/24 07:01:47;;;;;;;6.63;6.13;;;;;;;22.86;61.45;98519.81;5013662;28;20069;-94
2022/07/24 07:04:14;;;;;;;7.85;7.20;;;;;;;22.94;60.83;98520.09;5026736;28;20041;-94
2022/07/24 07:06:41;;;;;;;7.00;6.40;;;;;;;23.07;60.81;98518.72;5014779;28;20046;-90
2022/07/24 07:09:11;;;;;;;7.10;6.60;;;;;;;23.23;60.58;98531.00;5030690;28;20034;-90
2022/07/24 07:11:37;;;;;;;6.10;5.60;;;;;;;23.38;61.96;98516.78;5041774;28;20037;-92
2022/07/24 07:14:05;;;;;;;6.88;6.28;;;;;;;23.53;60.77;98526.66;5011984;28;20486;-88
2022/07/24 07:16:32;;;;;;;6.43;5.93;;;;;;;23.73;61.90;98520.44;5023722;28;20042;-87
2022/07/24 07:18:59;;;;;;;6.68;6.18;;;;;;;23.99;61.10;98529.13;5029009;28;20042;-90
2022/07/24 07:21:25;;;;;;;6.40;5.90;;;;;;;24.13;60.02;98529.34;5030658;28;20045;-90
2022/07/24 07:23:52;;;;;;;6.18;5.68;;;;;;;24.30;60.26;98525.22;5027776;28;20041;-89
2022/07/24 07:26:22;;;;;;;6.75;6.22;;;;;;;24.41;58.78;98530.50;5019413;28;20057;-88
2022/07/24 07:28:50;;;;;;;7.00;6.40;;;;;;;24.20;58.08;98532.50;5021761;28;20096;-91
2022/07/24 07:31:17;;;;;;;6.47;5.95;;;;;;;24.26;59.20;98526.03;5023463;28;20106;-91
2022/07/24 07:33:44;;;;;;;8.02;7.32;;;;;;;24.26;57.82;98524.16;5006007;28;20046;-92
2022/07/24 07:36:11;;;;;;;8.20;7.50;;;;;;;24.36;58.61;98525.22;5024950;28;20056;-90
2022/07/24 07:38:38;;;;;;;7.07;6.47;;;;;;;24.53;57.86;98525.63;5021742;28;20091;-88
2022/07/24 07:41:06;;;;;;;5.97;5.40;;;;;;;24.82;57.62;98520.25;5027290;28;20064;-93
2022/07/24 07:43:36;;;;;;;6.15;5.55;;;;;;;25.06;57.47;98533.75;5009223;28;20084;-90
2022/07/24 07:46:05;;;;;;;7.22;6.63;;;;;;;25.12;56.32;98529.94;5023700;28;20042;-90
2022/07/24 07:48:32;;;;;;;6.07;5.57;;;;;;;25.33;57.06;98525.19;5020968;28;20103;-88
2022/07/24 07:50:59;;;;;;;6.13;5.70;;;;;;;25.55;56.08;98519.25;5023557;28;20481;-87
2022/07/24 07:53:25;;;;;;;6.55;6.05;;;;;;;25.64;55.01;98525.63;5026592;28;20069;-90
2022/07/24 07:55:52;;;;;;;6.50;6.00;;;;;;;25.77;55.63;98530.31;5023259;28;20053;-89
2022/07/24 07:58:20;;;;;;;6.38;5.88;;;;;;;25.96;55.46;98526.84;5027583;28;20100;-89
2022/07/24 08:00:47;;;;;;;6.75;6.25;;;;;;;26.02;53.51;98520.31;5026759;28;20108;-91
2022/07/24 08:03:14;;;;;;;7.25;6.65;;;;;;;26.12;54.07;98522.88;5005545;28;20046;-91
2022/07/24 08:05:48;;;;;;;7.93;7.28;;;;;;;26.11;53.29;98523.97;5004995;28;20133;-89
2022/07/24 08:08:15;;;;;;;10.10;9.30;;;;;;;25.96;51.88;98526.84;5024005;28;20056;-90
2022/07/24 08:10:43;;;;;;;6.85;6.35;;;;;;;26.12;52.66;98534.41;5028397;28;20050;-89
2022/07/24 08:13:11;;;;;;;6.70;6.20;;;;;;;26.40;51.44;98526.50;5026375;28;20041;-90
2022/07/24 08:15:38;;;;;;;7.40;6.90;;;;;;;26.44;53.10;98518.66;5027933;28;20088;-91
2022/07/24 08:18:05;;;;;;;6.55;6.05;;;;;;;26.62;51.30;98523.19;5020497;28;20038;-88
2022/07/24 08:20:32;;;;;;;6.65;6.07;;;;;;;26.49;52.20;98513.19;5019060;28;20046;-88
2022/07/24 08:22:59;;;;;;;6.50;5.85;;;;;;;26.53;53.19;98522.28;5020072;28;20042;-88
2022/07/24 08:25:27;;;;;;;7.60;7.00;;;;;;;26.65;50.37;98519.94;5024152;28;20551;-90
2022/07/24 08:27:54;;;;;;;6.88;6.38;;;;;;;26.70;51.32;98516.38;5026881;28;20068;-89
2022/07/24 08:30:21;;;;;;;6.25;5.75;;;;;;;26.93;52.49;98518.13;5026323;28;20575;-91
2022/07/24 08:32:48;;;;;;;6.72;6.15;;;;;;;27.03;50.12;98517.13;5013234;28;20049;-89
2022/07/24 08:35:16;;;;;;;7.53;6.93;;;;;;;27.01;51.30;98514.75;5025751;28;20349;-90
2022/07/24 08:37:43;;;;;;;8.75;7.97;;;;;;;26.94;49.77;98511.66;5031880;28;20053;-87
2022/07/24 08:40:13;;;;;;;7.78;7.20;;;;;;;26.95;51.17;98513.25;5009700;28;20033;-88
2022/07/24 08:42:40;;;;;;;7.17;6.57;;;;;;;26.85;48.04;98510.72;5041722;28;20100;-88
2022/07/24 08:45:08;;;;;;;6.88;6.38;;;;;;;27.08;50.02;98514.38;5022959;28;20277;-88
2022/07/24 08:47:38;;;;;;;6.40;5.90;;;;;;;27.11;49.85;98506.53;5013771;28;20049;-88
2022/07/24 08:50:06;;;;;;;6.47;5.97;;;;;;;27.41;48.57;98504.34;5008761;28;20038;-89
2022/07/24 08:52:35;;;;;;;6.70;6.20;;;;;;;27.51;47.68;98511.41;5006019;28;20046;-91
2022/07/24 08:55:10;;;;;;;6.00;5.50;;;;;;;27.73;47.02;98508.81;5024053;28;20042;-89
2022/07/24 08:57:36;;;;;;;6.30;5.90;;;;;;;27.76;47.95;98493.94;5025357;28;20038;-92
2022/07/24 09:00:04;;;;;;;9.13;8.32;;;;;;;27.59;47.42;98502.59;5009714;28;20438;-91
2022/07/24 09:02:31;;;;;;;7.57;6.97;;;;;;;27.55;48.62;98501.63;5026122;28;20045;-88
2022/07/24 09:05:02;;;;;;;8.00;7.40;;;;;;;27.47;46.77;98509.31;5023940;28;20073;-89
2022/07/24 09:07:30;;;;;;;7.55;6.95;;;;;;;27.54;47.79;98494.66;5032972;28;20041;-90
2022/07/24 09:10:06;;;;;;;6.15;5.65;;;;;;;27.89;46.84;98502.03;5010958;28;20065;-90
2022/07/24 09:12:36;;;;;;;8.13;7.53;;;;;;;27.69;44.14;98488.97;5011152;28;20041;-88
2022/07/24 09:15:16;;;;;;;6.70;6.20;;;;;;;27.79;44.88;98490.66;5004111;28;20038;-90
2022/07/24 09:17:57;;;;;;;5.78;5.30;;;;;;;27.97;44.42;98487.03;5015002;28;20455;-91
2022/07/24 09:20:27;;;;;;;6.07;5.57;;;;;;;28.02;43.09;98494.19;5026131;28;20068;-87
2022/07/24 09:22:58;;;;;;;6.18;5.57;;;;;;;27.83;40.62;98497.84;5024645;28;20383;-90
2022/07/24 09:25:33;;;;;;;5.40;5.00;;;;;;;27.97;41.96;98479.72;5020840;28;20057;-91
2022/07/24 09:28:03;;;;;;;5.40;5.00;;;;;;;27.96;40.78;98478.13;5027995;28;20494;-91
2022/07/24 09:30:42;;;;;;;5.78;5.35;;;;;;;28.00;40.75;98473.72;5027151;28;20506;-89
2022/07/24 09:33:12;;;;;;;5.00;4.60;;;;;;;28.20;42.04;98485.94;5019805;28;20096;-87
2022/07/24 09:35:50;;;;;;;5.32;4.93;;;;;;;28.35;41.44;98487.50;5026976;28;20462;-87
2022/07/24 09:38:24;;;;;;;5.80;5.22;;;;;;;28.40;40.63;98484.69;5026090;28;20056;-89
2022/07/24 09:40:55;;;;;;;4.20;3.90;;;;;;;28.56;40.80;98473.53;5019223;28;20068;-87
2022/07/24 09:43:29;;;;;;;6.60;5.93;;;;;;;28.61;41.38;98482.31;5019800;28;20050;-87
2022/07/24 09:46:09;;;;;;;6.00;5.50;;;;;;;28.52;39.22;98476.03;5026190;28;20057;-88
2022/07/24 09:48:40;;;;;;;5.18;4.82;;;;;;;28.57;39.28;98480.53;5030547;28;20045;-88
2022/07/24 09:51:14;;;;;;;5.60;5.20;;;;;;;28.54;39.52;98471.13;5021395;28;20041;-90
2022/07/24 09:53:46;;;;;;;6.53;5.93;;;;;;;28.59;39.34;98468.31;5022803;28;20065;-89
2022/07/24 09:56:18;;;;;;;5.45;5.05;;;;;;;28.69;38.86;98473.44;5012106;28;20049;-89
2022/07/24 09:58:44;;;;;;;4.55;4.25;;;;;;;28.96;39.83;98486.00;5026936;28;20037;-86
2022/07/24 10:01:15;;;;;;;4.50;4.10;;;;;;;29.27;41.43;98479.78;5023702;28;20053;-87
2022/07/24 10:03:44;;;;;;;4.57;4.28;;;;;;;29.32;38.16;98477.72;5022960;28;20049;-85
2022/07/24 10:06:18;;;;;;;4.78;4.43;;;;;;;29.43;38.30;98478.22;5027918;28;20053;-90
2022/07/24 10:08:50;;;;;;;6.32;5.72;;;;;;;29.04;38.79;98482.56;5021725;28;20648;-88
2022/07/24 10:11:18;;;;;;;4.95;4.55;;;;;;;29.08;38.35;98481.91;5021089;28;20045;-89
2022/07/24 10:13:46;;;;;;;4.40;4.10;;;;;;;29.28;37.68;98478.66;5041593;28;20054;-87
2022/07/24 10:16:28;;;;;;;4.70;4.30;;;;;;;29.25;36.93;98468.47;5025938;28;20096;-91
2022/07/24 10:19:03;;;;;;;5.50;5.00;;;;;;;29.34;38.50;98472.00;5021424;28;20046;-87
2022/07/24 10:21:34;;;;;;;4.70;4.40;;;;;;;29.38;37.66;98464.84;5024902;28;20049;-91
2022/07/24 10:24:04;;;;;;;3.88;3.58;;;;;;;29.75;38.53;98474.38;5010034;28;20053;-87
2022/07/24 10:26:37;;;;;;;6.03;5.53;;;;;;;29.76;37.23;98464.34;5028134;28;20045;-88
2022/07/24 10:29:17;;;;;;;4.57;4.28;;;;;;;29.97;36.30;98465.28;5029694;28;20037;-90
2022/07/24 10:31:50;;;;;;;4.70;4.30;;;;;;;30.23;38.00;98454.53;5020799;28;20033;-88
2022/07/24 10:34:49;;;;;;;4.50;4.10;;;;;;;30.48;35.28;98461.00;5024559;28;20045;-87
2022/07/24 10:37:55;;;;;;;4.20;3.90;;;;;;;30.63;35.57;98452.34;5023434;28;20081;-89
2022/07/24 10:40:49;;;;;;;4.63;4.32;;;;;;;30.65;34.29;98439.31;5023805;28;20096;-89
2022/07/24 10:43:19;;;;;;;6.00;5.47;;;;;;;30.39;34.06;98449.38;5024248;28;20088;-90
2022/07/24 10:46:06;;;;;;;5.25;4.85;;;;;;;30.15;35.20;98451.81;5042847;28;20098;-91
2022/07/24 10:48:36;;;;;;;4.93;4.55;;;;;;;30.37;34.34;98440.81;5023094;28;20463;-87
2022/07/24 10:51:07;;;;;;;5.65;5.15;;;;;;;30.46;34.77;98441.56;5023370;28;20547;-89
2022/07/24 10:53:37;;;;;;;5.10;4.70;;;;;;;30.85;34.20;98439.75;5020694;28;20061;-89
2022/07/24 10:56:24;;;;;;;4.40;4.10;;;;;;;30.99;33.92;98440.31;5028263;28;20041;-89
2022/07/24 10:59:08;;;;;;;3.83;3.53;;;;;;;31.17;35.38;98441.81;5027734;28;20049;-87
2022/07/24 11:01:44;;;;;;;4.30;3.90;;;;;;;31.14;32.96;98430.84;5019095;28;20119;-89
2022/07/24 11:04:23;;;;;;;4.60;4.20;;;;;;;31.04;32.19;98431.22;5023366;28;20041;-87
2022/07/24 11:07:13;;;;;;;5.15;4.65;;;;;;;30.93;33.52;98428.06;5024459;28;20050;-86
2022/07/24 11:10:07;;;;;;;;;;;;;;;31.21;33.30;98435.75;5023453;28;20034;-86
2022/07/24 11:12:43;;;;;;;4.13;3.83;;;;;;;31.35;34.44;98425.50;5021720;28;19960;-88
2022/07/24 11:18:16;;;;;;;4.53;4.20;;;;;;;31.67;34.19;98407.75;5018150;28;20367;-88
2022/07/24 11:20:43;;;;;;;5.68;5.20;;;;;;;31.72;31.43;98396.69;5005902;28;20104;-89
2022/07/24 11:23:21;;;;;;;5.68;5.28;;;;;;;31.88;31.24;98408.56;5022896;28;20045;-87
2022/07/24 11:25:49;;;;;;;4.82;4.43;;;;;;;32.04;32.07;98403.31;5025407;28;20048;-90
2022/07/24 11:28:16;;;;;;;4.13;3.83;;;;;;;32.28;32.90;98409.97;5013357;28;20061;-91
2022/07/24 11:30:45;;;;;;;4.20;3.90;;;;;;;32.18;31.01;98395.69;5025994;28;20038;-89
2022/07/24 11:33:21;;;;;;;5.93;5.40;;;;;;;32.09;30.49;98400.41;5035174;28;20188;-87
2022/07/24 11:35:48;;;;;;;6.00;5.60;;;;;;;31.79;31.11;98401.56;5012468;28;20478;-88
2022/07/24 11:38:14;;;;;;;6.07;5.57;;;;;;;31.58;31.75;98401.59;5027277;28;20038;-89
2022/07/24 11:40:41;;;;;;;5.13;4.72;;;;;;;31.64;32.26;98403.00;5048313;28;20169;-88
2022/07/24 11:43:12;;;;;;;4.55;4.22;;;;;;;31.47;32.92;98382.22;5029530;28;20133;-91
2022/07/24 11:45:39;;;;;;;4.15;3.85;;;;;;;31.79;33.21;98385.31;5027612;28;20045;-86